sensor_id;sensor_type;location;lat;lon;timestamp;pressure;altitude;pressure_sealevel;temperature;humidity
55010;BME280;40903;51.638;7.528;2023-07-02T00:00:20;100086.31;;;17.80;100.00
55010;BME280;40903;51.638;7.528;2023-07-02T00:02:46;100089.50;;;17.82;100.00
55010;BME280;40903;51.638;7.528;2023-07-02T00:05:11;100090.66;;;17.81;100.00
55010;BME280;40903;51.638;7.528;2023-07-02T00:07:37;100090.19;;;17.79;100.00
55010;BME280;40903;51.638;7.528;2023-07-02T00:10:03;100088.59;;;17.78;100.00
55010;BME280;40903;51.638;7.528;2023-07-02T00:12:28;100079.16;;;17.79;100.00
55010;BME280;40903;51.638;7.528;2023-07-02T00:14:53;100079.97;;;17.80;100.00
55010;BME280;40903;51.638;7.528;2023-07-02T00:17:19;100079.09;;;17.76;100.00
55010;BME280;40903;51.638;7.528;2023-07-02T00:19:44;100081.03;;;17.75;100.00
55010;BME280;40903;51.638;7.528;2023-07-02T00:22:12;100083.00;;;17.75;100.00
55010;BME280;40903;51.638;7.528;2023-07-02T00:24:37;100072.03;;;17.78;100.00
55010;BME280;40903;51.638;7.528;2023-07-02T00:27:03;100080.69;;;17.77;100.00
55010;BME280;40903;51.638;7.528;2023-07-02T00:29:29;100073.91;;;17.74;100.00
55010;BME280;40903;51.638;7.528;2023-07-02T00:31:54;100077.38;;;17.71;100.00
55010;BME280;40903;51.638;7.528;2023-07-02T00:34:20;100088.41;;;17.71;100.00
55010;BME280;40903;51.638;7.528;2023-07-02T00:36:45;100074.19;;;17.69;100.00
55010;BME280;40903;51.638;7.528;2023-07-02T00:39:11;100078.09;;;17.68;100.00
55010;BME280;40903;51.638;7.528;2023-07-02T00:41:37;100079.25;;;17.67;100.00
55010;BME280;40903;51.638;7.528;2023-07-02T00:44:03;100077.28;;;17.68;100.00
55010;BME280;40903;51.638;7.528;2023-07-02T00:46:28;100078.81;;;17.65;100.00
55010;BME280;40903;51.638;7.528;2023-07-02T00:48:55;100077.66;;;17.66;100.00
55010;BME280;40903;51.638;7.528;2023-07-02T00:51:27;100071.22;;;17.62;100.00
55010;BME280;40903;51.638;7.528;2023-07-02T00:53:54;100084.22;;;17.62;100.00
55010;BME280;40903;51.638;7.528;2023-07-02T00:56:20;100081.91;;;17.64;100.00
55010;BME280;40903;51.638;7.528;2023-07-02T00:58:47;100075.84;;;17.58;100.00
55010;BME280;40903;51.638;7.528;2023-07-02T01:01:22;100080.56;;;17.58;100.00
55010;BME280;40903;51.638;7.528;2023-07-02T01:03:55;100073.06;;;17.58;100.00
55010;BME280;40903;51.638;7.528;2023-07-02T01:06:32;100075.38;;;17.56;100.00
55010;BME280;40903;51.638;7.528;2023-07-02T01:08:59;100065.16;;;17.57;100.00
55010;BME280;40903;51.638;7.528;2023-07-02T01:14:17;100069.88;;;17.56;100.00
55010;BME280;40903;51.638;7.528;2023-07-02T01:16:43;100067.13;;;17.56;100.00
55010;BME280;40903;51.638;7.528;2023-07-02T01:19:17;100063.91;;;17.54;100.00
55010;BME280;40903;51.638;7.528;2023-07-02T01:21:47;100063.47;;;17.52;100.00
55010;BME280;40903;51.638;7.528;2023-07-02T01:24:13;100056.69;;;17.50;100.00
55010;BME280;40903;51.638;7.528;2023-07-02T01:26:40;100044.16;;;17.52;100.00
55010;BME280;40903;51.638;7.528;2023-07-02T01:29:15;100022.00;;;17.49;100.00
55010;BME280;40903;51.638;7.528;2023-07-02T01:31:41;100026.19;;;17.43;100.00
55010;BME280;40903;51.638;7.528;2023-07-02T01:34:06;100022.16;;;17.40;100.00
55010;BME280;40903;51.638;7.528;2023-07-02T01:36:33;100028.97;;;17.31;100.00
55010;BME280;40903;51.638;7.528;2023-07-02T01:38:58;100033.91;;;17.25;100.00
55010;BME280;40903;51.638;7.528;2023-07-02T01:41:24;100039.69;;;17.20;100.00
55010;BME280;40903;51.638;7.528;2023-07-02T01:43:49;100040.81;;;17.19;100.00
55010;BME280;40903;51.638;7.528;2023-07-02T01:46:14;100041.44;;;17.13;100.00
55010;BME280;40903;51.638;7.528;2023-07-02T01:48:40;100045.25;;;17.08;100.00
55010;BME280;40903;51.638;7.528;2023-07-02T01:51:05;100052.56;;;17.04;100.00
55010;BME280;40903;51.638;7.528;2023-07-02T01:53:31;100054.88;;;17.02;100.00
55010;BME280;40903;51.638;7.528;2023-07-02T01:55:56;100060.31;;;16.99;100.00
55010;BME280;40903;51.638;7.528;2023-07-02T01:58:21;100078.31;;;16.96;100.00
55010;BME280;40903;51.638;7.528;2023-07-02T02:00:47;100074.41;;;16.97;100.00
55010;BME280;40903;51.638;7.528;2023-07-02T02:03:12;100080.75;;;16.98;100.00
55010;BME280;40903;51.638;7.528;2023-07-02T02:05:38;100080.03;;;17.01;100.00
55010;BME280;40903;51.638;7.528;2023-07-02T02:08:03;100075.09;;;17.06;100.00
55010;BME280;40903;51.638;7.528;2023-07-02T02:10:29;100081.38;;;17.07;100.00
55010;BME280;40903;51.638;7.528;2023-07-02T02:12:54;100075.53;;;17.08;100.00
55010;BME280;40903;51.638;7.528;2023-07-02T02:15:19;100079.91;;;17.09;100.00
55010;BME280;40903;51.638;7.528;2023-07-02T02:17:45;100082.66;;;17.09;100.00
55010;BME280;40903;51.638;7.528;2023-07-02T02:20:10;100088.28;;;17.13;100.00
55010;BME280;40903;51.638;7.528;2023-07-02T02:22:36;100075.63;;;17.12;100.00
55010;BME280;40903;51.638;7.528;2023-07-02T02:25:01;100083.56;;;17.13;100.00
55010;BME280;40903;51.638;7.528;2023-07-02T02:27:28;100083.56;;;17.13;100.00
55010;BME280;40903;51.638;7.528;2023-07-02T02:29:54;100089.88;;;17.14;100.00
55010;BME280;40903;51.638;7.528;2023-07-02T02:32:19;100090.66;;;17.14;100.00
55010;BME280;40903;51.638;7.528;2023-07-02T02:34:46;100091.47;;;17.15;100.00
55010;BME280;40903;51.638;7.528;2023-07-02T02:37:11;100090.91;;;17.09;100.00
55010;BME280;40903;51.638;7.528;2023-07-02T02:39:37;100077.16;;;17.09;100.00
55010;BME280;40903;51.638;7.528;2023-07-02T02:42:03;100093.56;;;17.06;100.00
55010;BME280;40903;51.638;7.528;2023-07-02T02:44:28;100082.53;;;17.06;100.00
55010;BME280;40903;51.638;7.528;2023-07-02T02:46:54;100080.34;;;17.11;100.00
55010;BME280;40903;51.638;7.528;2023-07-02T02:49:20;100087.34;;;17.09;100.00
55010;BME280;40903;51.638;7.528;2023-07-02T02:51:45;100079.09;;;17.09;100.00
55010;BME280;40903;51.638;7.528;2023-07-02T02:54:10;100084.38;;;17.14;100.00
55010;BME280;40903;51.638;7.528;2023-07-02T02:56:36;100081.94;;;17.12;100.00
55010;BME280;40903;51.638;7.528;2023-07-02T02:59:01;100084.72;;;17.12;100.00
55010;BME280;40903;51.638;7.528;2023-07-02T03:01:27;100077.16;;;17.09;100.00
55010;BME280;40903;51.638;7.528;2023-07-02T03:03:57;100084.72;;;17.12;100.00
55010;BME280;40903;51.638;7.528;2023-07-02T03:06:23;100084.59;;;17.09;100.00
55010;BME280;40903;51.638;7.528;2023-07-02T03:08:48;100089.75;;;17.10;100.00
55010;BME280;40903;51.638;7.528;2023-07-02T03:11:13;100095.97;;;17.07;100.00
55010;BME280;40903;51.638;7.528;2023-07-02T03:13:39;100094.81;;;17.08;100.00
55010;BME280;40903;51.638;7.528;2023-07-02T03:16:05;100090.09;;;17.09;100.00
55010;BME280;40903;51.638;7.528;2023-07-02T03:18:30;100095.28;;;17.10;100.00
55010;BME280;40903;51.638;7.528;2023-07-02T03:20:55;100093.66;;;17.09;100.00
55010;BME280;40903;51.638;7.528;2023-07-02T03:23:21;100105.94;;;17.12;100.00
55010;BME280;40903;51.638;7.528;2023-07-02T03:25:46;100100.34;;;17.08;100.00
55010;BME280;40903;51.638;7.528;2023-07-02T03:28:11;100105.47;;;17.10;100.00
55010;BME280;40903;51.638;7.528;2023-07-02T03:30:37;100115.34;;;17.11;100.00
55010;BME280;40903;51.638;7.528;2023-07-02T03:33:03;100114.19;;;17.12;100.00
55010;BME280;40903;51.638;7.528;2023-07-02T03:35:28;100115.72;;;17.09;100.00
55010;BME280;40903;51.638;7.528;2023-07-02T03:37:54;100126.03;;;17.12;100.00
55010;BME280;40903;51.638;7.528;2023-07-02T03:40:19;100128.09;;;17.15;100.00
55010;BME280;40903;51.638;7.528;2023-07-02T03:42:44;100125.34;;;17.15;100.00
55010;BME280;40903;51.638;7.528;2023-07-02T03:45:10;100126.47;;;17.14;100.00
55010;BME280;40903;51.638;7.528;2023-07-02T03:47:35;100129.50;;;17.09;100.00
55010;BME280;40903;51.638;7.528;2023-07-02T03:50:01;100137.75;;;17.09;100.00
55010;BME280;40903;51.638;7.528;2023-07-02T03:52:26;100135.34;;;17.08;100.00
55010;BME280;40903;51.638;7.528;2023-07-02T03:54:51;100142.44;;;17.09;100.00
55010;BME280;40903;51.638;7.528;2023-07-02T03:57:17;100138.53;;;17.10;100.00
55010;BME280;40903;51.638;7.528;2023-07-02T03:59:42;100151.53;;;17.09;100.00
55010;BME280;40903;51.638;7.528;2023-07-02T04:02:07;100137.75;;;17.09;100.00
55010;BME280;40903;51.638;7.528;2023-07-02T04:04:33;100147.97;;;17.09;100.00
55010;BME280;40903;51.638;7.528;2023-07-02T04:06:58;100164.16;;;17.10;100.00
55010;BME280;40903;51.638;7.528;2023-07-02T04:09:23;100162.66;;;17.13;100.00
55010;BME280;40903;51.638;7.528;2023-07-02T04:11:49;100162.75;;;17.16;100.00
55010;BME280;40903;51.638;7.528;2023-07-02T04:14:14;100166.31;;;17.17;100.00
55010;BME280;40903;51.638;7.528;2023-07-02T04:16:39;100160.44;;;17.18;98.14
55010;BME280;40903;51.638;7.528;2023-07-02T04:19:05;100166.06;;;17.22;97.53
55010;BME280;40903;51.638;7.528;2023-07-02T04:21:30;100160.22;;;17.23;95.68
55010;BME280;40903;51.638;7.528;2023-07-02T04:23:55;100175.38;;;17.29;95.84
55010;BME280;40903;51.638;7.528;2023-07-02T04:26:21;100167.69;;;17.35;95.05
55010;BME280;40903;51.638;7.528;2023-07-02T04:28:46;100175.72;;;17.40;94.35
55010;BME280;40903;51.638;7.528;2023-07-02T04:31:11;100178.59;;;17.43;93.26
55010;BME280;40903;51.638;7.528;2023-07-02T04:33:37;100186.16;;;17.46;91.31
55010;BME280;40903;51.638;7.528;2023-07-02T04:36:03;100189.34;;;17.48;91.71
55010;BME280;40903;51.638;7.528;2023-07-02T04:38:28;100190.16;;;17.49;90.34
55010;BME280;40903;51.638;7.528;2023-07-02T04:40:54;100195.25;;;17.47;90.83
55010;BME280;40903;51.638;7.528;2023-07-02T04:43:22;100194.88;;;17.48;89.21
55010;BME280;40903;51.638;7.528;2023-07-02T04:45:48;100195.56;;;17.45;90.22
55010;BME280;40903;51.638;7.528;2023-07-02T04:48:14;100202.34;;;17.48;87.21
55010;BME280;40903;51.638;7.528;2023-07-02T04:50:39;100199.16;;;17.46;89.14
55010;BME280;40903;51.638;7.528;2023-07-02T04:53:04;100204.28;;;17.47;88.13
55010;BME280;40903;51.638;7.528;2023-07-02T04:55:30;100212.94;;;17.46;86.01
55010;BME280;40903;51.638;7.528;2023-07-02T04:57:55;100210.75;;;17.51;87.26
55010;BME280;40903;51.638;7.528;2023-07-02T05:00:21;100207.50;;;17.49;87.35
55010;BME280;40903;51.638;7.528;2023-07-02T05:02:47;100214.66;;;17.50;87.22
55010;BME280;40903;51.638;7.528;2023-07-02T05:05:12;100213.69;;;17.58;86.40
55010;BME280;40903;51.638;7.528;2023-07-02T05:07:40;100218.94;;;17.63;83.73
55010;BME280;40903;51.638;7.528;2023-07-02T05:10:05;100213.66;;;17.70;84.93
55010;BME280;40903;51.638;7.528;2023-07-02T05:12:31;100216.16;;;17.75;85.10
55010;BME280;40903;51.638;7.528;2023-07-02T05:14:56;100218.69;;;17.80;84.75
55010;BME280;40903;51.638;7.528;2023-07-02T05:17:22;100223.59;;;17.86;82.60
55010;BME280;40903;51.638;7.528;2023-07-02T05:19:47;100220.16;;;17.89;82.06
55010;BME280;40903;51.638;7.528;2023-07-02T05:22:12;100227.13;;;17.99;81.96
55010;BME280;40903;51.638;7.528;2023-07-02T05:24:38;100222.25;;;18.08;81.16
55010;BME280;40903;51.638;7.528;2023-07-02T05:27:05;100228.41;;;18.17;80.71
55010;BME280;40903;51.638;7.528;2023-07-02T05:29:31;100233.34;;;18.23;77.54
55010;BME280;40903;51.638;7.528;2023-07-02T05:31:56;100226.97;;;18.35;77.29
55010;BME280;40903;51.638;7.528;2023-07-02T05:34:21;100237.06;;;18.43;74.54
55010;BME280;40903;51.638;7.528;2023-07-02T05:36:47;100243.47;;;18.47;74.72
55010;BME280;40903;51.638;7.528;2023-07-02T05:39:12;100241.28;;;18.52;75.57
55010;BME280;40903;51.638;7.528;2023-07-02T05:41:37;100233.16;;;18.59;75.41
55010;BME280;40903;51.638;7.528;2023-07-02T05:44:03;100240.38;;;18.64;74.57
55010;BME280;40903;51.638;7.528;2023-07-02T05:46:28;100238.59;;;18.71;74.40
55010;BME280;40903;51.638;7.528;2023-07-02T05:48:54;100237.28;;;18.81;75.52
55010;BME280;40903;51.638;7.528;2023-07-02T05:51:25;100235.38;;;18.85;76.69
55010;BME280;40903;51.638;7.528;2023-07-02T05:53:51;100239.94;;;18.93;78.29
55010;BME280;40903;51.638;7.528;2023-07-02T05:56:17;100247.34;;;19.04;79.57
55010;BME280;40903;51.638;7.528;2023-07-02T05:58:43;100243.69;;;19.16;80.07
55010;BME280;40903;51.638;7.528;2023-07-02T06:01:08;100251.09;;;19.27;79.78
55010;BME280;40903;51.638;7.528;2023-07-02T06:03:34;100252.78;;;19.32;79.58
55010;BME280;40903;51.638;7.528;2023-07-02T06:05:59;100249.22;;;19.31;79.85
55010;BME280;40903;51.638;7.528;2023-07-02T06:08:25;100255.91;;;19.30;79.60
55010;BME280;40903;51.638;7.528;2023-07-02T06:10:50;100250.38;;;19.30;81.81
55010;BME280;40903;51.638;7.528;2023-07-02T06:13:16;100251.16;;;19.46;82.78
55010;BME280;40903;51.638;7.528;2023-07-02T06:15:42;100257.25;;;19.71;84.19
55010;BME280;40903;51.638;7.528;2023-07-02T06:18:07;100251.22;;;19.84;81.22
55010;BME280;40903;51.638;7.528;2023-07-02T06:20:33;100258.63;;;19.80;75.89
55010;BME280;40903;51.638;7.528;2023-07-02T06:22:58;100259.66;;;19.91;76.42
55010;BME280;40903;51.638;7.528;2023-07-02T06:25:24;100267.66;;;19.96;77.46
55010;BME280;40903;51.638;7.528;2023-07-02T06:27:49;100257.41;;;19.96;77.85
55010;BME280;40903;51.638;7.528;2023-07-02T06:30:14;100273.22;;;19.96;77.74
55010;BME280;40903;51.638;7.528;2023-07-02T06:32:40;100275.97;;;20.11;76.93
55010;BME280;40903;51.638;7.528;2023-07-02T06:35:06;100271.66;;;20.33;75.58
55010;BME280;40903;51.638;7.528;2023-07-02T06:37:32;100281.63;;;20.56;72.26
55010;BME280;40903;51.638;7.528;2023-07-02T06:39:58;100274.97;;;20.61;68.22
55010;BME280;40903;51.638;7.528;2023-07-02T06:42:24;100284.72;;;20.74;68.40
55010;BME280;40903;51.638;7.528;2023-07-02T06:44:50;100279.84;;;20.67;64.37
55010;BME280;40903;51.638;7.528;2023-07-02T06:47:15;100289.53;;;20.58;63.84
55010;BME280;40903;51.638;7.528;2023-07-02T06:49:41;100293.03;;;20.74;62.87
55010;BME280;40903;51.638;7.528;2023-07-02T06:52:06;100288.25;;;20.93;62.44
55010;BME280;40903;51.638;7.528;2023-07-02T06:54:31;100296.31;;;21.24;62.85
55010;BME280;40903;51.638;7.528;2023-07-02T06:56:57;100300.13;;;21.39;60.67
55010;BME280;40903;51.638;7.528;2023-07-02T06:59:22;100293.81;;;21.64;59.98
55010;BME280;40903;51.638;7.528;2023-07-02T07:01:49;100293.41;;;21.88;59.92
55010;BME280;40903;51.638;7.528;2023-07-02T07:04:14;100301.44;;;21.97;57.51
55010;BME280;40903;51.638;7.528;2023-07-02T07:06:40;100298.31;;;22.02;57.62
55010;BME280;40903;51.638;7.528;2023-07-02T07:09:05;100297.81;;;22.22;57.75
55010;BME280;40903;51.638;7.528;2023-07-02T07:11:31;100309.72;;;22.22;55.33
55010;BME280;40903;51.638;7.528;2023-07-02T07:13:56;100308.53;;;22.53;56.48
55010;BME280;40903;51.638;7.528;2023-07-02T07:16:21;100310.66;;;22.63;52.48
55010;BME280;40903;51.638;7.528;2023-07-02T07:18:47;100314.66;;;22.36;49.72
55010;BME280;40903;51.638;7.528;2023-07-02T07:21:13;100309.88;;;22.33;52.01
55010;BME280;40903;51.638;7.528;2023-07-02T07:23:39;100315.91;;;22.38;51.21
55010;BME280;40903;51.638;7.528;2023-07-02T07:26:05;100316.47;;;22.51;50.84
55010;BME280;40903;51.638;7.528;2023-07-02T07:28:30;100314.88;;;22.50;48.67
55010;BME280;40903;51.638;7.528;2023-07-02T07:30:56;100317.25;;;22.51;49.94
55010;BME280;40903;51.638;7.528;2023-07-02T07:33:21;100308.69;;;22.67;50.54
55010;BME280;40903;51.638;7.528;2023-07-02T07:35:46;100321.56;;;22.82;49.58
55010;BME280;40903;51.638;7.528;2023-07-02T07:38:15;100318.59;;;23.01;50.42
55010;BME280;40903;51.638;7.528;2023-07-02T07:40:42;100314.88;;;23.23;52.08
55010;BME280;40903;51.638;7.528;2023-07-02T07:43:07;100317.00;;;23.40;50.76
55010;BME280;40903;51.638;7.528;2023-07-02T07:45:33;100330.53;;;23.45;45.51
55010;BME280;40903;51.638;7.528;2023-07-02T07:47:58;100329.66;;;23.34;46.66
55010;BME280;40903;51.638;7.528;2023-07-02T07:50:24;100345.97;;;23.35;46.81
55010;BME280;40903;51.638;7.528;2023-07-02T07:52:49;100338.72;;;23.27;44.22
55010;BME280;40903;51.638;7.528;2023-07-02T07:55:16;100330.25;;;23.13;46.61
55010;BME280;40903;51.638;7.528;2023-07-02T07:57:41;100338.09;;;23.04;45.98
55010;BME280;40903;51.638;7.528;2023-07-02T08:00:07;100332.25;;;23.13;46.37
55010;BME280;40903;51.638;7.528;2023-07-02T08:02:33;100337.13;;;23.23;47.14
55010;BME280;40903;51.638;7.528;2023-07-02T08:04:58;100347.25;;;23.45;46.01
55010;BME280;40903;51.638;7.528;2023-07-02T08:07:24;100341.59;;;23.34;45.17
55010;BME280;40903;51.638;7.528;2023-07-02T08:09:49;100329.00;;;23.51;46.55
55010;BME280;40903;51.638;7.528;2023-07-02T08:12:14;100354.78;;;23.41;44.64
55010;BME280;40903;51.638;7.528;2023-07-02T08:14:39;100350.66;;;23.28;44.37
55010;BME280;40903;51.638;7.528;2023-07-02T08:17:05;100360.72;;;23.03;43.58
55010;BME280;40903;51.638;7.528;2023-07-02T08:19:30;100352.91;;;23.12;46.37
55010;BME280;40903;51.638;7.528;2023-07-02T08:21:55;100355.09;;;23.36;47.78
55010;BME280;40903;51.638;7.528;2023-07-02T08:24:21;100356.16;;;23.21;46.02
55010;BME280;40903;51.638;7.528;2023-07-02T08:26:46;100353.25;;;23.10;45.64
55010;BME280;40903;51.638;7.528;2023-07-02T08:29:13;100366.13;;;22.89;45.94
55010;BME280;40903;51.638;7.528;2023-07-02T08:31:38;100368.69;;;22.68;43.87
55010;BME280;40903;51.638;7.528;2023-07-02T08:34:03;100363.16;;;22.71;46.14
55010;BME280;40903;51.638;7.528;2023-07-02T08:36:29;100363.38;;;22.56;44.92
55010;BME280;40903;51.638;7.528;2023-07-02T08:38:54;100374.41;;;22.49;45.53
55010;BME280;40903;51.638;7.528;2023-07-02T08:41:22;100373.66;;;22.52;45.74
55010;BME280;40903;51.638;7.528;2023-07-02T08:43:49;100373.78;;;22.99;48.19
55010;BME280;40903;51.638;7.528;2023-07-02T08:46:15;100375.03;;;23.41;44.35
55010;BME280;40903;51.638;7.528;2023-07-02T08:48:41;100383.56;;;23.19;44.02
55010;BME280;40903;51.638;7.528;2023-07-02T08:51:07;100388.00;;;23.23;44.76
55010;BME280;40903;51.638;7.528;2023-07-02T08:53:33;100384.84;;;23.28;44.59
55010;BME280;40903;51.638;7.528;2023-07-02T08:56:03;100391.84;;;23.12;44.14
55010;BME280;40903;51.638;7.528;2023-07-02T08:58:28;100408.59;;;22.86;42.36
55010;BME280;40903;51.638;7.528;2023-07-02T09:01:10;100395.41;;;22.76;44.86
55010;BME280;40903;51.638;7.528;2023-07-02T09:03:37;100394.78;;;22.60;45.50
55010;BME280;40903;51.638;7.528;2023-07-02T09:06:08;100401.31;;;22.45;44.91
55010;BME280;40903;51.638;7.528;2023-07-02T09:08:33;100386.00;;;22.28;45.38
55010;BME280;40903;51.638;7.528;2023-07-02T09:11:28;100390.44;;;22.62;47.36
55010;BME280;40903;51.638;7.528;2023-07-02T09:13:53;100381.41;;;23.05;46.33
55010;BME280;40903;51.638;7.528;2023-07-02T09:16:28;100392.09;;;23.36;42.94
55010;BME280;40903;51.638;7.528;2023-07-02T09:21:22;100397.53;;;23.66;41.78
55010;BME280;40903;51.638;7.528;2023-07-02T09:23:47;100402.84;;;23.38;41.87
55010;BME280;40903;51.638;7.528;2023-07-02T09:26:20;100407.56;;;23.34;43.91
55010;BME280;40903;51.638;7.528;2023-07-02T09:28:45;100394.38;;;23.24;44.21
55010;BME280;40903;51.638;7.528;2023-07-02T09:31:11;100391.94;;;23.66;43.96
55010;BME280;40903;51.638;7.528;2023-07-02T09:33:36;100406.13;;;23.90;42.82
55010;BME280;40903;51.638;7.528;2023-07-02T09:36:02;100393.34;;;23.86;42.22
55010;BME280;40903;51.638;7.528;2023-07-02T09:38:27;100404.63;;;23.60;41.04
55010;BME280;40903;51.638;7.528;2023-07-02T09:40:53;100388.72;;;23.57;41.28
55010;BME280;40903;51.638;7.528;2023-07-02T09:43:19;100409.16;;;23.31;40.80
55010;BME280;40903;51.638;7.528;2023-07-02T09:45:46;100403.19;;;23.29;42.54
55010;BME280;40903;51.638;7.528;2023-07-02T09:48:13;100404.38;;;23.32;43.00
55010;BME280;40903;51.638;7.528;2023-07-02T09:50:42;100390.53;;;23.39;40.43
55010;BME280;40903;51.638;7.528;2023-07-02T09:53:08;100405.00;;;23.58;43.22
55010;BME280;40903;51.638;7.528;2023-07-02T09:55:34;100395.38;;;23.45;39.68
55010;BME280;40903;51.638;7.528;2023-07-02T09:58:00;100391.22;;;23.72;42.35
55010;BME280;40903;51.638;7.528;2023-07-02T10:00:25;100402.50;;;23.83;38.82
55010;BME280;40903;51.638;7.528;2023-07-02T10:02:50;100409.41;;;24.03;39.13
55010;BME280;40903;51.638;7.528;2023-07-02T10:05:32;100416.72;;;24.28;39.72
55010;BME280;40903;51.638;7.528;2023-07-02T10:08:14;100412.25;;;24.13;39.33
55010;BME280;40903;51.638;7.528;2023-07-02T10:10:42;100409.25;;;24.42;39.66
55010;BME280;40903;51.638;7.528;2023-07-02T10:13:07;100414.22;;;24.73;40.24
55010;BME280;40903;51.638;7.528;2023-07-02T10:15:32;100413.91;;;25.03;40.68
55010;BME280;40903;51.638;7.528;2023-07-02T10:18:03;100425.13;;;25.10;38.17
55010;BME280;40903;51.638;7.528;2023-07-02T10:20:39;100430.69;;;25.10;36.63
55010;BME280;40903;51.638;7.528;2023-07-02T10:23:07;100431.34;;;24.75;34.10
55010;BME280;40903;51.638;7.528;2023-07-02T10:25:34;100426.25;;;24.23;36.40
55010;BME280;40903;51.638;7.528;2023-07-02T10:28:20;100419.22;;;24.43;39.65
55010;BME280;40903;51.638;7.528;2023-07-02T10:30:47;100417.03;;;24.84;40.15
55010;BME280;40903;51.638;7.528;2023-07-02T10:33:14;100425.81;;;24.79;36.84
55010;BME280;40903;51.638;7.528;2023-07-02T10:35:41;100426.91;;;24.60;37.83
55010;BME280;40903;51.638;7.528;2023-07-02T10:38:13;100435.44;;;24.27;36.03
55010;BME280;40903;51.638;7.528;2023-07-02T10:40:42;100428.94;;;24.10;35.19
55010;BME280;40903;51.638;7.528;2023-07-02T10:43:07;100427.34;;;24.09;38.59
55010;BME280;40903;51.638;7.528;2023-07-02T10:45:34;100427.00;;;24.17;38.47
55010;BME280;40903;51.638;7.528;2023-07-02T10:48:10;100425.97;;;24.39;38.88
55010;BME280;40903;51.638;7.528;2023-07-02T10:50:36;100427.69;;;24.61;40.18
55010;BME280;40903;51.638;7.528;2023-07-02T10:53:01;100420.81;;;24.48;38.64
55010;BME280;40903;51.638;7.528;2023-07-02T10:55:28;100418.31;;;24.29;38.30
55010;BME280;40903;51.638;7.528;2023-07-02T10:58:05;100431.38;;;24.15;38.60
55010;BME280;40903;51.638;7.528;2023-07-02T11:00:31;100420.16;;;24.04;39.92
55010;BME280;40903;51.638;7.528;2023-07-02T11:02:56;100417.28;;;23.94;40.32
55010;BME280;40903;51.638;7.528;2023-07-02T11:05:22;100418.88;;;23.95;41.03
55010;BME280;40903;51.638;7.528;2023-07-02T11:07:47;100416.53;;;24.00;41.24
55010;BME280;40903;51.638;7.528;2023-07-02T11:10:19;100425.06;;;24.24;42.28
55010;BME280;40903;51.638;7.528;2023-07-02T11:12:44;100424.34;;;24.38;38.69
55010;BME280;40903;51.638;7.528;2023-07-02T11:15:11;100421.94;;;24.36;38.42
55010;BME280;40903;51.638;7.528;2023-07-02T11:17:37;100430.25;;;24.26;38.71
55010;BME280;40903;51.638;7.528;2023-07-02T11:20:05;100431.09;;;24.33;38.76
55010;BME280;40903;51.638;7.528;2023-07-02T11:22:32;100431.03;;;24.23;37.61
55010;BME280;40903;51.638;7.528;2023-07-02T11:25:17;100419.13;;;24.33;40.20
55010;BME280;40903;51.638;7.528;2023-07-02T11:27:44;100435.00;;;24.22;39.17
55010;BME280;40903;51.638;7.528;2023-07-02T11:30:10;100425.53;;;24.33;40.52
55010;BME280;40903;51.638;7.528;2023-07-02T11:32:53;100434.47;;;24.56;40.43
55010;BME280;40903;51.638;7.528;2023-07-02T11:35:20;100439.84;;;25.10;38.18
55010;BME280;40903;51.638;7.528;2023-07-02T11:37:46;100433.13;;;25.18;39.46
55010;BME280;40903;51.638;7.528;2023-07-02T11:40:13;100435.53;;;25.30;37.18
55010;BME280;40903;51.638;7.528;2023-07-02T11:42:40;100448.72;;;25.37;35.15
55010;BME280;40903;51.638;7.528;2023-07-02T11:45:06;100449.03;;;25.18;37.65
55010;BME280;40903;51.638;7.528;2023-07-02T11:47:32;100445.81;;;25.02;36.63
55010;BME280;40903;51.638;7.528;2023-07-02T11:49:57;100435.00;;;24.93;37.67
55010;BME280;40903;51.638;7.528;2023-07-02T11:52:25;100444.16;;;24.87;37.87
55010;BME280;40903;51.638;7.528;2023-07-02T11:54:50;100449.22;;;24.60;37.71
55010;BME280;40903;51.638;7.528;2023-07-02T11:57:15;100440.06;;;24.63;37.06
55010;BME280;40903;51.638;7.528;2023-07-02T11:59:42;100448.88;;;24.72;36.06
55010;BME280;40903;51.638;7.528;2023-07-02T12:02:07;100439.47;;;25.12;38.74
55010;BME280;40903;51.638;7.528;2023-07-02T12:04:33;100445.94;;;25.40;37.75
55010;BME280;40903;51.638;7.528;2023-07-02T12:06:59;100453.16;;;25.55;37.80
55010;BME280;40903;51.638;7.528;2023-07-02T12:09:26;100441.22;;;25.97;36.32
55010;BME280;40903;51.638;7.528;2023-07-02T12:11:52;100451.97;;;25.84;35.45
55010;BME280;40903;51.638;7.528;2023-07-02T12:14:18;100457.13;;;25.51;34.25
55010;BME280;40903;51.638;7.528;2023-07-02T12:16:43;100448.38;;;25.66;36.57
55010;BME280;40903;51.638;7.528;2023-07-02T12:19:09;100445.59;;;25.66;36.17
55010;BME280;40903;51.638;7.528;2023-07-02T12:21:34;100448.41;;;26.01;34.60
55010;BME280;40903;51.638;7.528;2023-07-02T12:23:59;100454.38;;;26.27;33.21
55010;BME280;40903;51.638;7.528;2023-07-02T12:26:25;100443.97;;;26.49;35.84
55010;BME280;40903;51.638;7.528;2023-07-02T12:28:50;100443.06;;;26.80;36.26
55010;BME280;40903;51.638;7.528;2023-07-02T12:31:15;100450.63;;;26.93;33.27
55010;BME280;40903;51.638;7.528;2023-07-02T12:33:41;100447.41;;;26.95;33.47
55010;BME280;40903;51.638;7.528;2023-07-02T12:36:06;100448.56;;;27.15;31.95
55010;BME280;40903;51.638;7.528;2023-07-02T12:38:31;100452.97;;;27.16;31.91
55010;BME280;40903;51.638;7.528;2023-07-02T12:40:57;100446.91;;;27.21;32.88
55010;BME280;40903;51.638;7.528;2023-07-02T12:43:22;100446.97;;;27.07;32.14
55010;BME280;40903;51.638;7.528;2023-07-02T12:45:48;100457.88;;;26.84;29.59
55010;BME280;40903;51.638;7.528;2023-07-02T12:48:13;100446.97;;;27.10;33.35